createdAt,value
2019-01-08T00:01:03.492Z,96279.00
2019-01-08T00:06:34.400Z,96284.00
2019-01-08T00:12:04.331Z,96268.00
2019-01-08T00:17:34.475Z,96262.00
2019-01-08T00:23:04.409Z,96239.00
2019-01-08T00:28:43.081Z,96233.00
2019-01-08T00:34:09.638Z,96221.00
2019-01-08T00:39:48.548Z,96223.00
2019-01-08T00:45:18.642Z,96212.00
2019-01-08T00:50:50.750Z,96209.00
2019-01-08T00:56:23.883Z,96199.00
2019-01-08T01:01:58.015Z,96197.00
2019-01-08T01:07:40.439Z,96178.00
2019-01-08T01:13:18.117Z,96180.00
2019-01-08T01:18:47.881Z,96159.00
2019-01-08T01:24:17.601Z,96155.00
2019-01-08T01:29:46.951Z,96137.00
2019-01-08T01:35:16.436Z,96124.00
2019-01-08T01:40:46.882Z,96130.00
2019-01-08T01:46:16.314Z,96117.00
2019-01-08T01:51:45.624Z,96105.00
2019-01-08T01:57:15.411Z,96091.00
2019-01-08T02:02:44.783Z,96080.00
2019-01-08T02:08:14.309Z,96065.00
2019-01-08T02:13:43.740Z,96048.00
2019-01-08T02:19:13.055Z,96045.00
2019-01-08T02:24:42.457Z,96030.00
2019-01-08T02:30:11.882Z,96021.00
2019-01-08T02:35:41.220Z,96007.00
2019-01-08T02:41:10.622Z,95986.00
2019-01-08T02:46:40.172Z,95974.00
2019-01-08T02:52:09.705Z,95952.00
2019-01-08T02:57:39.194Z,95937.00
2019-01-08T03:03:09.674Z,95920.00
2019-01-08T03:08:39.142Z,95918.00
2019-01-08T03:14:08.589Z,95911.00
2019-01-08T03:19:38.072Z,95905.00
2019-01-08T03:25:07.667Z,95872.00
2019-01-08T03:30:37.071Z,95851.00
2019-01-08T03:36:06.607Z,95829.00
2019-01-08T03:41:36.020Z,95814.00
2019-01-08T03:47:05.371Z,95795.00
2019-01-08T03:52:34.716Z,95791.00
2019-01-08T03:58:04.082Z,95774.00
2019-01-08T04:03:33.463Z,95760.00
2019-01-08T04:09:02.920Z,95738.00
2019-01-08T04:14:32.248Z,95729.00
2019-01-08T04:20:01.550Z,95703.00
2019-01-08T04:25:30.869Z,95704.00
2019-01-08T04:31:00.188Z,95699.00
2019-01-08T04:36:29.722Z,95682.00
2019-01-08T04:41:59.066Z,95667.00
2019-01-08T04:47:28.401Z,95660.00
2019-01-08T04:52:57.733Z,95651.00
2019-01-08T04:58:27.201Z,95617.00
2019-01-08T05:03:56.502Z,95615.00
2019-01-08T05:09:25.939Z,95595.00
2019-01-08T05:14:55.485Z,95583.00
2019-01-08T05:20:24.914Z,95578.00
2019-01-08T05:25:54.343Z,95579.00
2019-01-08T05:31:23.930Z,95567.00
2019-01-08T05:36:54.322Z,95557.00
2019-01-08T05:42:23.911Z,95562.00
2019-01-08T05:47:53.218Z,95540.00
2019-01-08T05:53:24.557Z,95538.00
2019-01-08T05:58:53.964Z,95538.00
2019-01-08T06:04:23.390Z,95521.00
2019-01-08T06:09:53.033Z,95533.00
2019-01-08T06:15:22.823Z,95528.00
2019-01-08T06:20:53.218Z,95509.00
2019-01-08T06:26:22.663Z,95526.00
2019-01-08T06:31:55.355Z,95515.00
2019-01-08T06:37:24.773Z,95499.00
2019-01-08T06:42:54.342Z,95505.00
2019-01-08T06:48:23.740Z,95501.00
2019-01-08T06:53:53.106Z,95496.00
2019-01-08T06:59:22.450Z,95490.00
2019-01-08T07:04:51.854Z,95520.00
2019-01-08T07:10:21.226Z,95492.00
2019-01-08T07:15:50.618Z,95514.00
2019-01-08T07:21:27.708Z,95501.00
2019-01-08T07:26:57.395Z,95508.00
2019-01-08T07:32:26.861Z,95499.00
2019-01-08T07:37:56.287Z,95508.00
2019-01-08T07:43:25.726Z,95480.00
2019-01-08T07:48:55.175Z,95506.00
2019-01-08T07:54:24.673Z,95475.00
2019-01-08T07:59:55.762Z,95472.00
2019-01-08T08:05:25.167Z,95473.00
2019-01-08T08:10:57.278Z,95474.00
2019-01-08T08:16:26.706Z,95473.00
2019-01-08T08:21:56.015Z,95468.00
2019-01-08T08:27:25.494Z,95464.00
2019-01-08T08:32:54.989Z,95475.00
2019-01-08T08:38:24.341Z,95453.00
2019-01-08T08:43:54.713Z,95463.00
2019-01-08T08:49:24.825Z,95471.00
2019-01-08T08:54:54.257Z,95460.00
2019-01-08T09:00:23.630Z,95458.00
2019-01-08T09:05:53.024Z,95463.00
2019-01-08T09:11:22.321Z,95469.00
2019-01-08T09:16:51.734Z,95449.00
2019-01-08T09:22:21.197Z,95454.00
2019-01-08T09:27:50.562Z,95462.00
2019-01-08T09:33:19.898Z,95473.00
2019-01-08T09:38:49.314Z,95444.00
2019-01-08T09:44:19.689Z,95438.00
2019-01-08T09:49:51.138Z,95438.00
2019-01-08T09:55:20.564Z,95432.00
2019-01-08T10:00:49.893Z,95435.00
2019-01-08T10:06:19.362Z,95421.00
2019-01-08T10:11:48.775Z,95428.00
2019-01-08T10:17:18.101Z,95420.00
2019-01-08T10:22:53.663Z,95418.00
2019-01-08T10:28:22.990Z,95421.00
2019-01-08T10:33:52.307Z,95405.00
2019-01-08T10:39:21.849Z,95400.00
2019-01-08T10:44:51.400Z,95395.00
2019-01-08T10:50:20.732Z,95409.00
2019-01-08T10:55:50.170Z,95379.00
2019-01-08T11:01:19.487Z,95378.00
2019-01-08T11:06:48.883Z,95377.00
2019-01-08T11:12:18.236Z,95364.00
2019-01-08T11:17:49.342Z,95369.00
2019-01-08T11:23:18.747Z,95354.00
2019-01-08T11:28:48.134Z,95360.00
2019-01-08T11:34:17.494Z,95348.00
2019-01-08T11:39:46.914Z,95361.00
2019-01-08T11:45:16.482Z,95330.00
2019-01-08T11:50:46.942Z,95340.00
2019-01-08T11:56:16.357Z,95312.00
2019-01-08T12:01:46.559Z,95296.00
2019-01-08T12:07:15.916Z,95283.00
2019-01-08T12:12:45.244Z,95278.00
2019-01-08T12:18:14.622Z,95269.00
2019-01-08T12:23:47.118Z,95280.00
2019-01-08T12:29:16.636Z,95258.00
2019-01-08T12:34:46.030Z,95258.00
2019-01-08T12:40:15.350Z,95242.00
2019-01-08T12:45:44.737Z,95236.00
2019-01-08T12:51:14.203Z,95239.00
2019-01-08T12:56:43.588Z,95231.00
2019-01-08T13:02:14.861Z,95216.00
2019-01-08T13:07:44.380Z,95215.00
2019-01-08T13:13:13.861Z,95196.00
2019-01-08T13:18:43.310Z,95220.00
2019-01-08T13:24:13.121Z,95195.00
2019-01-08T13:29:42.435Z,95212.00
2019-01-08T13:35:12.066Z,95209.00
2019-01-08T13:40:41.571Z,95195.00
2019-01-08T13:46:11.053Z,95205.00
2019-01-08T13:51:40.494Z,95208.00
2019-01-08T13:57:09.966Z,95188.00
2019-01-08T14:02:42.176Z,95176.00
2019-01-08T14:08:11.708Z,95182.00
2019-01-08T14:13:41.242Z,95185.00
2019-01-08T14:19:10.636Z,95173.00
2019-01-08T14:24:40.038Z,95163.00
2019-01-08T14:30:10.963Z,95209.00
2019-01-08T14:35:40.570Z,95191.00
2019-01-08T14:41:10.020Z,95184.00
2019-01-08T14:46:39.494Z,95201.00
2019-01-08T14:52:09.426Z,95197.00
2019-01-08T14:57:39.158Z,95193.00
2019-01-08T15:03:10.107Z,95208.00
2019-01-08T15:08:42.266Z,95192.00
2019-01-08T15:14:12.344Z,95186.00
2019-01-08T15:19:41.820Z,95182.00
2019-01-08T15:25:11.448Z,95171.00
2019-01-08T15:30:41.158Z,95181.00
2019-01-08T15:36:11.044Z,95176.00
2019-01-08T15:41:42.570Z,95157.00
2019-01-08T15:47:12.162Z,95151.00
2019-01-08T15:52:42.028Z,95136.00
2019-01-08T15:58:11.509Z,95142.00
2019-01-08T16:03:41.099Z,95144.00
2019-01-08T16:09:10.418Z,95131.00
2019-01-08T16:14:40.008Z,95155.00
2019-01-08T16:20:09.367Z,95124.00
2019-01-08T16:25:38.714Z,95126.00
2019-01-08T16:31:08.231Z,95136.00
2019-01-08T16:36:37.720Z,95114.00
2019-01-08T16:42:10.817Z,95104.00
2019-01-08T16:47:40.493Z,95124.00
2019-01-08T16:53:10.073Z,95117.00
2019-01-08T16:58:39.629Z,95119.00
2019-01-08T17:04:09.122Z,95083.00
2019-01-08T17:09:39.217Z,95083.00
2019-01-08T17:15:08.617Z,95073.00
2019-01-08T17:20:38.101Z,95067.00
2019-01-08T17:26:07.657Z,95076.00
2019-01-08T17:31:37.114Z,95088.00
2019-01-08T17:37:06.610Z,95066.00
2019-01-08T17:42:36.008Z,95086.00
2019-01-08T17:48:05.531Z,95055.00
2019-01-08T17:53:34.891Z,95072.00
2019-01-08T17:59:09.436Z,95048.00
2019-01-08T18:04:38.958Z,95048.00
2019-01-08T18:10:09.503Z,95047.00
2019-01-08T18:15:40.058Z,95044.00
2019-01-08T18:21:09.546Z,95043.00
2019-01-08T18:26:39.538Z,95050.00
2019-01-08T18:32:09.177Z,95054.00
2019-01-08T18:37:39.801Z,95051.00
2019-01-08T18:43:13.986Z,95049.00
2019-01-08T18:48:40.441Z,95051.00
2019-01-08T18:54:18.872Z,95057.00
2019-01-08T18:59:48.490Z,95063.00
2019-01-08T19:05:19.868Z,95077.00
2019-01-08T19:10:49.798Z,95073.00
2019-01-08T19:16:20.234Z,95069.00
2019-01-08T19:21:50.746Z,95057.00
2019-01-08T19:27:20.431Z,95083.00
2019-01-08T19:32:49.960Z,95074.00
2019-01-08T19:38:19.443Z,95059.00
2019-01-08T19:43:48.954Z,95060.00
2019-01-08T19:49:18.577Z,95049.00
2019-01-08T19:54:48.093Z,95057.00
2019-01-08T20:00:17.529Z,95070.00
2019-01-08T20:05:47.106Z,95076.00
2019-01-08T20:11:16.579Z,95058.00
2019-01-08T20:16:46.594Z,95070.00
2019-01-08T20:22:19.306Z,95077.00
2019-01-08T20:27:49.919Z,95063.00
2019-01-08T20:33:20.460Z,95057.00
2019-01-08T20:38:50.105Z,95055.00
2019-01-08T20:44:19.752Z,95047.00
2019-01-08T20:49:49.165Z,95040.00
2019-01-08T20:55:18.694Z,95049.00
2019-01-08T21:00:48.301Z,95044.00
2019-01-08T21:06:18.035Z,95011.00
2019-01-08T21:11:47.410Z,95004.00
2019-01-08T21:17:16.818Z,95018.00
2019-01-08T21:22:46.329Z,95007.00
2019-01-08T21:28:15.781Z,95041.00
2019-01-08T21:33:45.148Z,95037.00
2019-01-08T21:39:14.824Z,95034.00
2019-01-08T21:44:44.694Z,95034.00
2019-01-08T21:50:14.247Z,95028.00
2019-01-08T21:55:43.723Z,95026.00
2019-01-08T22:01:13.114Z,95020.00
2019-01-08T22:06:42.644Z,95002.00
2019-01-08T22:12:12.133Z,95014.00
2019-01-08T22:17:41.533Z,95021.00
2019-01-08T22:23:11.122Z,95012.00
2019-01-08T22:28:40.494Z,95003.00
2019-01-08T22:34:10.090Z,94998.00
2019-01-08T22:39:39.865Z,94967.00
2019-01-08T22:45:09.446Z,94966.00
2019-01-08T22:50:39.013Z,94965.00
2019-01-08T22:56:08.603Z,94959.00
2019-01-08T23:01:38.975Z,94949.00
2019-01-08T23:07:08.556Z,94954.00
2019-01-08T23:12:39.615Z,94947.00
2019-01-08T23:18:09.202Z,94946.00
2019-01-08T23:23:39.770Z,94918.00
2019-01-08T23:29:09.553Z,94916.00
2019-01-08T23:34:38.990Z,94926.00
2019-01-08T23:40:09.568Z,94926.00
2019-01-08T23:45:39.303Z,94927.00
2019-01-08T23:51:09.820Z,94883.00
2019-01-08T23:56:39.350Z,94906.00
